Enoree, South Carolina
Current Conditions -  °F | °C
As of 9:15 AM on Saturday 22 Nov 2014 (Local Time) from KLUX Reporting Station
Clear Clear  
Wind Chill: 32°   Ceiling: Unl
Heat Index: 37°   Visibility: 10mi
Dew Point: 10°   Wind: 7mph
Humidity: 33%   Direction: 30°NNE
Pressure: 30.54"   Gusts: NA
Location:  34.66°N, 81.96°W
Report Text: KLUX 221415Z AUTO 03006KT 10SM CLR 03/M12 A3054 RMK AO2
Loading
Personal Weather Stations






























Interactive Weather Map New forecast layout! Learn more

10-Day Weather Forecast

Advertisements
Track Severe Weather on mobile